Nambour, Australia
Current Conditions -  °F | °C
As of 7:00 PM on Wednesday 22 Oct 2014 (Local Time) from YBBN Reporting Station
Scattered Clouds Scattered Clouds  
Wind Chill: 68°   Ceiling: Unl
Heat Index: 68°   Visibility: 6mi
Dew Point: 54°   Wind: 8mph
Humidity: 60%   Direction: 110°ESE
Pressure: 30.21"   Gusts: NA
Location:  26.63°S, 152.96°E
Report Text: YBBN 220900Z 11007KT 9999 FEW022 SCT045 20/12 Q1023
Loading
Personal Weather Stations






























Interactive Weather Map
Tropical Storm Tracking
New forecast layout! Learn more

10-Day Weather Forecast

Advertisements
Track Severe Weather on mobile